Time;durP1;ratioP1;P1;durP2;ratioP2;P2;SDS_P1;SDS_P2;PMS_P1;PMS_P2;Temp;Humidity;BMP_temperature;BMP_pressure;BME280_temperature;BME280_humidity;BME280_pressure;Samples;Min_cycle;Max_cycle;Signal;HPM_P1;HPM_P2
2022/10/25 00:01:29;;;;;;;27.13;8.63;;;;;;;11.44;100.00;100911.63;5051962;28;20496;-86
2022/10/25 00:03:57;;;;;;;20.02;7.25;;;;;;;11.44;100.00;100909.84;5082728;28;20389;-86
2022/10/25 00:06:26;;;;;;;20.63;8.50;;;;;;;11.44;100.00;100906.34;5037916;28;20417;-86
2022/10/25 00:08:54;;;;;;;19.60;7.90;;;;;;;11.44;100.00;100906.34;5069244;28;20040;-86
2022/10/25 00:11:30;;;;;;;19.33;8.75;;;;;;;11.45;100.00;100900.16;5044965;28;20051;-86
2022/10/25 00:14:02;;;;;;;26.92;9.13;;;;;;;11.45;100.00;100908.06;5066445;28;20043;-86
2022/10/25 00:16:34;;;;;;;24.52;8.75;;;;;;;11.44;100.00;100914.25;5052101;28;20040;-86
2022/10/25 00:19:03;;;;;;;15.90;7.93;;;;;;;11.43;100.00;100897.50;5075446;28;20248;-87
2022/10/25 00:21:36;;;;;;;25.70;10.02;;;;;;;11.44;100.00;100904.56;5078717;28;20058;-87
2022/10/25 00:24:05;;;;;;;18.95;8.15;;;;;;;11.44;100.00;100908.97;5061334;28;20044;-87
2022/10/25 00:26:35;;;;;;;16.50;8.10;;;;;;;11.43;100.00;100910.72;5091691;28;20400;-86
2022/10/25 00:29:03;;;;;;;24.75;9.60;;;;;;;11.42;100.00;100903.69;5047984;28;20290;-87
2022/10/25 00:31:32;;;;;;;20.02;8.35;;;;;;;11.43;100.00;100912.47;5057445;28;20047;-87
2022/10/25 00:34:01;;;;;;;23.70;8.73;;;;;;;11.42;100.00;100908.09;5023912;28;20329;-87
2022/10/25 00:36:30;;;;;;;27.35;9.82;;;;;;;11.43;100.00;100909.84;5056187;28;20048;-87
2022/10/25 00:38:58;;;;;;;19.70;8.93;;;;;;;11.41;100.00;100901.03;5084995;28;20043;-86
2022/10/25 00:41:29;;;;;;;21.13;9.45;;;;;;;11.41;100.00;100904.56;5086603;28;20044;-87
2022/10/25 00:44:35;;;;;;;22.13;9.98;;;;;;;11.42;100.00;100908.09;5082754;28;20040;-86
2022/10/25 00:47:13;;;;;;;21.38;8.52;;;;;;;11.41;100.00;100907.19;5077002;28;20063;-87
2022/10/25 00:49:43;;;;;;;19.45;8.88;;;;;;;11.41;100.00;100924.78;5052820;28;20048;-86
2022/10/25 00:52:12;;;;;;;28.05;11.50;;;;;;;11.41;100.00;100922.16;5031219;28;20044;-86
2022/10/25 00:54:47;;;;;;;31.55;10.30;;;;;;;11.40;100.00;100926.56;5051674;28;20393;-86
2022/10/25 00:57:39;;;;;;;18.10;9.32;;;;;;;11.40;100.00;100915.09;5068874;28;20071;-86
2022/10/25 01:00:08;;;;;;;20.83;10.55;;;;;;;11.41;100.00;100922.16;5068647;28;20057;-87
2022/10/25 01:02:36;;;;;;;24.92;11.18;;;;;;;11.40;100.00;100923.91;5089780;28;20547;-86
2022/10/25 01:05:09;;;;;;;23.67;12.00;;;;;;;11.41;100.00;100930.06;5047592;28;20168;-86
2022/10/25 01:07:37;;;;;;;25.88;11.18;;;;;;;11.40;100.00;100929.19;5070462;28;20069;-86
2022/10/25 01:10:06;;;;;;;21.60;12.15;;;;;;;11.40;100.00;100941.47;5060676;28;20262;-86
2022/10/25 01:12:36;;;;;;;25.83;12.07;;;;;;;11.41;100.00;100935.34;5071178;28;20047;-88
2022/10/25 01:15:04;;;;;;;24.13;11.90;;;;;;;11.40;100.00;100936.22;5073112;28;20055;-86
2022/10/25 01:17:52;;;;;;;27.25;11.65;;;;;;;11.41;100.00;100944.13;5085907;28;20055;-88
2022/10/25 01:20:38;;;;;;;31.92;13.38;;;;;;;11.41;100.00;100938.84;5045378;28;20046;-88
2022/10/25 01:23:28;;;;;;;30.10;13.32;;;;;;;11.42;100.00;100939.75;5083318;28;20047;-87
2022/10/25 01:26:18;;;;;;;30.42;12.63;;;;;;;11.40;100.00;100934.47;5076166;28;20055;-87
2022/10/25 01:29:25;;;;;;;27.77;12.88;;;;;;;11.40;100.00;100938.84;5090966;28;20040;-87
2022/10/25 01:32:03;;;;;;;27.23;12.90;;;;;;;11.40;100.00;100938.84;5076401;28;20063;-88
2022/10/25 01:34:43;;;;;;;23.40;12.77;;;;;;;11.39;100.00;100942.38;5064102;28;20047;-86
2022/10/25 01:37:50;;;;;;;32.55;13.32;;;;;;;11.40;100.00;100952.03;5046274;28;20036;-86
2022/10/25 01:41:17;;;;;;;31.15;15.07;;;;;;;11.43;100.00;100952.06;5088724;28;20052;-86
2022/10/25 01:43:58;;;;;;;31.63;13.73;;;;;;;11.45;100.00;100950.28;5028656;28;20518;-86
2022/10/25 01:46:47;;;;;;;32.35;15.07;;;;;;;11.49;100.00;100955.59;5064721;28;20059;-86
2022/10/25 01:49:27;;;;;;;25.90;16.20;;;;;;;11.52;100.00;100955.59;5107820;28;20047;-86
2022/10/25 01:51:55;;;;;;;29.77;16.05;;;;;;;11.54;100.00;100955.59;5065664;28;20055;-87
2022/10/25 01:54:25;;;;;;;31.27;16.55;;;;;;;11.56;100.00;100959.09;5070115;28;20047;-87
2022/10/25 01:57:16;;;;;;;32.83;16.40;;;;;;;11.58;100.00;100959.13;5071268;28;20040;-87
2022/10/25 02:00:12;;;;;;;34.53;16.77;;;;;;;11.61;100.00;100964.41;5090370;28;20040;-87
2022/10/25 02:02:52;;;;;;;32.40;16.35;;;;;;;11.64;100.00;100961.75;5083195;28;20043;-86
2022/10/25 02:05:32;;;;;;;35.33;16.38;;;;;;;11.66;100.00;100966.16;5081743;28;20389;-86
2022/10/25 02:08:45;;;;;;;34.15;16.60;;;;;;;11.72;100.00;100970.56;5067956;28;20257;-87
2022/10/25 02:11:22;;;;;;;38.58;16.48;;;;;;;11.74;100.00;100967.91;5057881;28;20052;-86
2022/10/25 02:14:04;;;;;;;30.25;16.05;;;;;;;11.77;100.00;100960.00;5100903;28;20028;-86
2022/10/25 02:16:35;;;;;;;;;;;;;;;11.80;100.00;100952.09;5070648;28;20027;-86
2022/10/25 02:19:08;;;;;;;34.55;15.68;;;;;;;11.80;100.00;100958.25;5052851;28;19920;-87
2022/10/25 02:21:37;;;;;;;32.70;15.70;;;;;;;11.81;100.00;100953.84;5052885;28;20044;-86
2022/10/25 02:24:12;;;;;;;27.13;14.82;;;;;;;11.80;100.00;100960.00;5076726;28;20039;-86
2022/10/25 02:26:43;;;;;;;32.30;16.27;;;;;;;11.77;100.00;100944.16;5053997;28;20044;-86
2022/10/25 02:29:14;;;;;;;26.80;15.27;;;;;;;11.75;100.00;100953.84;5084698;28;20050;-85
2022/10/25 02:31:42;;;;;;;30.45;13.95;;;;;;;11.73;100.00;100958.25;5070077;28;20497;-86
2022/10/25 02:34:11;;;;;;;27.83;14.88;;;;;;;11.70;100.00;100948.53;5084252;28;20316;-86
2022/10/25 02:36:39;;;;;;;32.30;13.82;;;;;;;11.67;100.00;100952.06;5055631;28;20520;-87
2022/10/25 02:39:08;;;;;;;26.92;13.27;;;;;;;11.65;100.00;100953.84;5066781;28;20047;-86
2022/10/25 02:41:36;;;;;;;24.42;14.43;;;;;;;11.64;100.00;100959.97;5086115;28;20048;-86
2022/10/25 02:44:04;;;;;;;23.55;12.73;;;;;;;11.61;100.00;100960.00;5070075;28;20532;-86
2022/10/25 02:46:33;;;;;;;21.98;13.55;;;;;;;11.59;100.00;100964.41;5091011;28;20043;-86
2022/10/25 02:49:01;;;;;;;27.38;14.00;;;;;;;11.57;100.00;100960.88;5083838;28;20267;-86
2022/10/25 02:51:30;;;;;;;24.88;13.75;;;;;;;11.57;100.00;100965.25;5070915;28;20036;-86
2022/10/25 02:53:58;;;;;;;27.10;13.48;;;;;;;11.55;100.00;100967.00;5078773;28;20421;-86
2022/10/25 02:56:27;;;;;;;28.17;13.68;;;;;;;11.56;100.00;100966.16;5032098;28;20036;-86
2022/10/25 02:58:56;;;;;;;25.75;14.52;;;;;;;11.56;100.00;100964.38;5051218;28;20044;-86
2022/10/25 03:01:25;;;;;;;22.13;13.65;;;;;;;11.58;100.00;100969.66;5058305;28;20047;-86
2022/10/25 03:03:56;;;;;;;26.13;13.43;;;;;;;11.59;100.00;100974.97;5066610;28;20047;-86
2022/10/25 03:06:24;;;;;;;21.55;13.48;;;;;;;11.60;100.00;100979.34;5077296;28;20040;-87
2022/10/25 03:08:52;;;;;;;22.75;13.05;;;;;;;11.63;100.00;100981.13;5048874;28;20032;-86
2022/10/25 03:11:21;;;;;;;24.83;12.55;;;;;;;11.65;100.00;100977.59;5069091;28;20055;-85
2022/10/25 03:13:49;;;;;;;21.33;12.68;;;;;;;11.68;100.00;100979.34;5086598;28;20984;-85
2022/10/25 03:16:17;;;;;;;24.95;13.70;;;;;;;11.71;100.00;100969.66;5054744;28;20236;-86
2022/10/25 03:18:46;;;;;;;21.52;13.05;;;;;;;11.74;100.00;100979.38;5058859;27;20039;-86
2022/10/25 03:21:14;;;;;;;20.27;12.93;;;;;;;11.77;100.00;100984.63;5076866;28;20035;-86
2022/10/25 03:23:42;;;;;;;20.77;12.98;;;;;;;11.79;100.00;100985.50;5035759;28;20036;-86
2022/10/25 03:26:11;;;;;;;31.27;14.20;;;;;;;11.82;100.00;100992.56;5055489;28;20259;-85
2022/10/25 03:28:39;;;;;;;26.08;14.43;;;;;;;11.85;100.00;100992.56;5091455;28;20032;-85
2022/10/25 03:31:13;;;;;;;31.60;14.95;;;;;;;11.87;100.00;100996.97;5043036;28;20059;-85
2022/10/25 03:33:42;;;;;;;23.92;13.60;;;;;;;11.89;100.00;100989.06;5068995;28;20504;-85
2022/10/25 03:36:10;;;;;;;25.65;12.93;;;;;;;11.92;100.00;101004.06;5082743;28;20256;-86
2022/10/25 03:38:39;;;;;;;24.55;13.45;;;;;;;11.93;100.00;100993.50;5061585;28;20035;-86
2022/10/25 03:41:10;;;;;;;26.88;14.38;;;;;;;11.95;100.00;100996.13;5060040;27;20050;-86
2022/10/25 03:43:38;;;;;;;23.73;13.82;;;;;;;11.95;100.00;100998.78;5070062;28;20055;-86
2022/10/25 03:46:06;;;;;;;24.00;13.02;;;;;;;11.95;100.00;101004.94;5072902;28;20150;-85
2022/10/25 03:48:35;;;;;;;26.67;13.65;;;;;;;11.94;100.00;100997.88;5077835;28;20040;-85
2022/10/25 03:51:04;;;;;;;25.10;14.02;;;;;;;11.93;100.00;101011.97;5089516;28;20035;-85
2022/10/25 03:53:32;;;;;;;22.17;13.27;;;;;;;11.90;100.00;101007.56;5065860;28;20522;-86
2022/10/25 03:56:01;;;;;;;27.10;13.40;;;;;;;11.88;100.00;101018.97;5067294;28;20591;-86
2022/10/25 03:58:29;;;;;;;26.67;12.60;;;;;;;11.85;100.00;101018.97;5071916;28;20067;-86
2022/10/25 04:00:59;;;;;;;21.55;13.55;;;;;;;11.82;100.00;101018.97;5043946;28;20603;-86
2022/10/25 04:03:29;;;;;;;24.42;14.00;;;;;;;11.78;100.00;101031.28;5028532;28;20068;-86
2022/10/25 04:05:58;;;;;;;31.08;14.52;;;;;;;11.76;100.00;101030.41;5023153;28;20190;-87
2022/10/25 04:08:26;;;;;;;21.40;12.68;;;;;;;11.73;100.00;101027.75;5033319;28;20405;-85
2022/10/25 04:10:54;;;;;;;24.38;14.63;;;;;;;11.71;100.00;101034.78;5012632;28;20528;-85
2022/10/25 04:13:23;;;;;;;26.15;13.50;;;;;;;11.69;100.00;101042.72;5029725;28;20409;-84
2022/10/25 04:15:51;;;;;;;25.63;13.10;;;;;;;11.67;100.00;101040.94;5051376;28;20044;-85
2022/10/25 04:18:20;;;;;;;28.70;12.90;;;;;;;11.65;100.00;101038.31;5037104;28;20044;-85
2022/10/25 04:20:49;;;;;;;21.65;13.45;;;;;;;11.65;100.00;101046.22;5025630;28;20064;-85
2022/10/25 04:23:17;;;;;;;27.05;13.02;;;;;;;11.66;100.00;101055.91;4996207;28;20253;-84
2022/10/25 04:25:45;;;;;;;23.80;12.25;;;;;;;11.66;100.00;101050.63;5015579;28;20040;-85
2022/10/25 04:28:14;;;;;;;23.25;12.43;;;;;;;11.67;100.00;101056.78;5013962;28;20170;-86
2022/10/25 04:30:43;;;;;;;18.70;11.23;;;;;;;11.69;100.00;101058.53;5041916;28;20510;-87
2022/10/25 04:33:11;;;;;;;26.20;12.05;;;;;;;11.73;100.00;101059.44;5072770;28;20044;-86
2022/10/25 04:35:41;;;;;;;28.83;12.32;;;;;;;11.75;100.00;101064.72;5056207;28;20042;-86
2022/10/25 04:38:10;;;;;;;23.58;12.45;;;;;;;11.77;100.00;101070.88;5075254;28;20039;-85
2022/10/25 04:40:38;;;;;;;25.27;11.88;;;;;;;11.79;100.00;101066.47;5094530;28;20035;-86
2022/10/25 04:43:07;;;;;;;29.08;12.55;;;;;;;11.79;100.00;101069.13;5049974;28;20031;-86
2022/10/25 04:45:35;;;;;;;29.55;12.88;;;;;;;11.80;100.00;101068.25;5075068;28;20040;-86
2022/10/25 04:48:04;;;;;;;24.20;13.30;;;;;;;11.79;100.00;101070.00;5050399;28;20048;-86
2022/10/25 04:50:32;;;;;;;20.95;11.55;;;;;;;11.77;100.00;101071.75;5072042;28;20055;-85
2022/10/25 04:53:01;;;;;;;34.00;14.38;;;;;;;11.75;100.00;101076.16;5076112;27;22495;-86
2022/10/25 04:55:30;;;;;;;30.27;13.13;;;;;;;11.73;100.00;101077.03;5069876;28;20048;-85
2022/10/25 04:57:58;;;;;;;35.58;13.73;;;;;;;11.70;100.00;101077.91;5053244;28;20047;-84
2022/10/25 05:00:27;;;;;;;22.13;12.30;;;;;;;11.67;100.00;101086.69;5059762;28;20040;-85
2022/10/25 05:02:55;;;;;;;29.60;13.38;;;;;;;11.64;100.00;101084.03;5023847;28;20526;-85
2022/10/25 05:05:25;;;;;;;27.45;13.40;;;;;;;11.61;100.00;101086.69;5029752;28;20057;-86
2022/10/25 05:07:53;;;;;;;26.73;14.02;;;;;;;11.59;100.00;101080.53;5039289;28;20052;-85
2022/10/25 05:10:21;;;;;;;29.90;13.20;;;;;;;11.59;100.00;101077.03;5042098;28;20052;-86
2022/10/25 05:12:52;;;;;;;33.78;13.55;;;;;;;11.57;100.00;101084.03;5048628;28;20529;-86
2022/10/25 05:15:21;;;;;;;33.88;14.50;;;;;;;11.53;100.00;101080.53;5035276;28;20433;-86
2022/10/25 05:17:49;;;;;;;28.42;13.30;;;;;;;11.54;100.00;101086.69;5047183;28;21489;-83
2022/10/25 05:20:19;;;;;;;26.65;12.25;;;;;;;11.52;100.00;101084.03;5044084;28;20370;-84
2022/10/25 05:22:47;;;;;;;31.80;12.52;;;;;;;11.52;100.00;101089.31;5062190;28;20051;-84
2022/10/25 05:25:16;;;;;;;32.47;13.35;;;;;;;11.52;100.00;101097.22;5028261;28;20049;-84
2022/10/25 05:27:45;;;;;;;34.47;13.65;;;;;;;11.51;100.00;101098.09;5033065;28;20036;-85
2022/10/25 05:30:14;;;;;;;35.85;14.95;;;;;;;11.52;100.00;101100.72;5043978;28;20052;-84
2022/10/25 05:32:43;;;;;;;26.02;13.18;;;;;;;11.51;100.00;101098.09;5047622;28;20428;-84
2022/10/25 05:35:12;;;;;;;31.15;12.73;;;;;;;11.49;100.00;101103.38;5082703;28;20048;-85
2022/10/25 05:37:41;;;;;;;34.55;14.27;;;;;;;11.49;100.00;101110.41;5072481;28;20488;-85
2022/10/25 05:40:09;;;;;;;28.42;12.75;;;;;;;11.50;100.00;101112.16;5073247;28;20070;-85
2022/10/25 05:42:38;;;;;;;23.73;11.55;;;;;;;11.49;100.00;101105.13;5072674;27;20027;-86
2022/10/25 05:45:07;;;;;;;30.27;12.38;;;;;;;11.47;100.00;101107.78;5069817;28;20044;-84
2022/10/25 05:47:35;;;;;;;31.02;13.50;;;;;;;11.48;100.00;101119.22;5066484;28;20538;-83
2022/10/25 05:50:04;;;;;;;23.50;12.10;;;;;;;11.46;100.00;101124.47;5081655;28;20405;-86
2022/10/25 05:52:32;;;;;;;27.40;11.18;;;;;;;11.45;100.00;101125.31;5073230;28;20039;-84
2022/10/25 05:55:00;;;;;;;31.75;12.80;;;;;;;11.43;100.00;101127.09;5033266;28;20032;-86
2022/10/25 05:57:29;;;;;;;34.63;12.93;;;;;;;11.43;100.00;101128.84;5020015;28;20041;-86
2022/10/25 05:59:58;;;;;;;31.90;11.88;;;;;;;11.41;100.00;101128.84;5051992;28;20044;-86
2022/10/25 06:02:26;;;;;;;32.20;13.00;;;;;;;11.42;100.00;101135.03;5052447;28;20053;-85
2022/10/25 06:04:54;;;;;;;30.35;12.07;;;;;;;11.40;100.00;101127.09;5055333;28;20055;-86
2022/10/25 06:07:23;;;;;;;32.92;13.18;;;;;;;11.41;100.00;101133.25;5057102;28;20304;-85
2022/10/25 06:09:52;;;;;;;45.67;14.27;;;;;;;11.43;100.00;101129.72;5045591;28;20044;-86
2022/10/25 06:12:20;;;;;;;28.88;12.25;;;;;;;11.45;100.00;101137.66;5040301;28;20482;-85
2022/10/25 06:14:49;;;;;;;30.92;13.20;;;;;;;11.45;100.00;101135.00;5037356;28;20040;-86
2022/10/25 06:17:17;;;;;;;31.00;12.55;;;;;;;11.48;100.00;101142.97;5023223;28;20036;-86
2022/10/25 06:19:46;;;;;;;34.50;14.32;;;;;;;11.49;100.00;101142.06;5054374;28;20044;-85
2022/10/25 06:22:14;;;;;;;31.92;13.48;;;;;;;11.52;100.00;101144.72;5012834;28;20151;-85
2022/10/25 06:24:42;;;;;;;31.98;14.18;;;;;;;11.56;100.00;101143.84;5029734;28;20048;-85
2022/10/25 06:27:11;;;;;;;36.08;14.98;;;;;;;11.61;100.00;101152.69;5026511;28;20052;-84
2022/10/25 06:29:39;;;;;;;33.42;14.02;;;;;;;11.65;100.00;101154.44;5027972;28;20165;-85
2022/10/25 06:32:07;;;;;;;36.67;14.77;;;;;;;11.69;100.00;101158.00;5061986;28;20040;-85
2022/10/25 06:34:36;;;;;;;35.75;14.07;;;;;;;11.74;100.00;101161.53;5035291;28;20040;-84
2022/10/25 06:37:04;;;;;;;39.67;15.13;;;;;;;11.78;100.00;101165.06;5040007;28;20055;-85
2022/10/25 06:39:32;;;;;;;34.08;14.60;;;;;;;11.82;100.00;101174.75;5021427;28;20052;-85
2022/10/25 06:42:01;;;;;;;35.53;14.68;;;;;;;11.85;100.00;101175.66;5033856;28;20043;-85
2022/10/25 06:44:29;;;;;;;34.05;14.40;;;;;;;11.89;100.00;101184.47;5050447;28;20517;-85
2022/10/25 06:46:59;;;;;;;29.67;14.18;;;;;;;11.91;100.00;101182.75;5035229;28;20020;-85
2022/10/25 06:49:45;;;;;;;33.35;13.27;;;;;;;11.94;100.00;101188.03;5050041;28;20071;-85
2022/10/25 06:52:13;;;;;;;31.83;13.07;;;;;;;11.96;100.00;101185.38;5040353;28;20052;-85
2022/10/25 06:54:42;;;;;;;32.03;13.70;;;;;;;11.95;100.00;101189.78;5072108;27;20152;-84
2022/10/25 06:57:10;;;;;;;27.98;12.85;;;;;;;11.96;100.00;101196.81;5082734;28;20048;-84
2022/10/25 06:59:38;;;;;;;32.28;13.15;;;;;;;11.96;100.00;101203.88;5071564;28;20043;-84
2022/10/25 07:02:08;;;;;;;26.17;12.35;;;;;;;11.96;100.00;101212.66;5069754;28;20046;-84
2022/10/25 07:04:37;;;;;;;31.10;13.05;;;;;;;11.97;100.00;101221.50;5059231;28;20439;-85
2022/10/25 07:07:06;;;;;;;25.30;12.07;;;;;;;11.98;100.00;101224.13;5067455;28;20047;-86
2022/10/25 07:09:34;;;;;;;28.95;12.65;;;;;;;12.01;100.00;101231.19;5071294;27;20270;-83
2022/10/25 07:12:03;;;;;;;31.95;12.52;;;;;;;12.01;100.00;101221.50;5073613;28;20048;-84
2022/10/25 07:14:37;;;;;;;31.85;11.25;;;;;;;12.05;100.00;101232.97;5079102;28;20451;-85
2022/10/25 07:17:05;;;;;;;25.63;12.52;;;;;;;12.09;100.00;101237.38;5067132;28;20031;-85
2022/10/25 07:19:34;;;;;;;25.75;11.40;;;;;;;12.11;100.00;101232.97;5093499;28;20540;-85
2022/10/25 07:22:02;;;;;;;18.60;10.98;;;;;;;12.13;100.00;101246.19;5039293;28;20412;-85
2022/10/25 07:24:31;;;;;;;24.05;10.90;;;;;;;12.14;100.00;101243.56;5065550;27;20515;-85
2022/10/25 07:27:00;;;;;;;26.43;9.77;;;;;;;12.16;100.00;101248.84;5089815;28;20035;-85
2022/10/25 07:29:30;;;;;;;24.85;10.95;;;;;;;12.15;100.00;101255.00;5085257;28;20040;-85
2022/10/25 07:31:59;;;;;;;28.70;11.30;;;;;;;12.14;100.00;101253.25;5094072;28;20047;-85
2022/10/25 07:34:27;;;;;;;26.33;10.43;;;;;;;12.14;100.00;101247.97;5086741;27;20300;-85
2022/10/25 07:36:56;;;;;;;25.20;9.57;;;;;;;12.14;100.00;101253.25;5061761;28;20043;-85
2022/10/25 07:39:24;;;;;;;22.10;10.65;;;;;;;12.15;100.00;101255.88;5075230;28;20023;-85
2022/10/25 07:41:53;;;;;;;23.70;9.20;;;;;;;12.18;100.00;101255.91;5070623;28;20063;-85
2022/10/25 07:44:20;;;;;;;21.70;9.05;;;;;;;12.21;100.00;101255.00;5084994;28;20048;-85
2022/10/25 07:46:54;;;;;;;17.63;8.57;;;;;;;12.24;100.00;101249.75;5070399;28;20039;-85
2022/10/25 07:49:22;;;;;;;20.23;8.45;;;;;;;12.26;100.00;101245.34;5073949;28;20386;-86
2022/10/25 07:51:51;;;;;;;24.70;9.00;;;;;;;12.27;100.00;101248.00;5044858;28;20058;-84
2022/10/25 07:54:19;;;;;;;23.85;8.43;;;;;;;12.32;100.00;101247.13;5064464;28;20058;-84
2022/10/25 07:56:47;;;;;;;22.15;7.30;;;;;;;12.37;100.00;101261.25;5073628;28;20070;-84
2022/10/25 07:59:16;;;;;;;18.83;7.85;;;;;;;12.43;100.00;101264.75;5044265;28;20032;-85
2022/10/25 08:01:45;;;;;;;22.13;7.68;;;;;;;12.51;100.00;101261.25;5065562;28;20043;-83
2022/10/25 08:04:14;;;;;;;20.65;7.13;;;;;;;12.56;100.00;101264.81;5081176;28;20032;-86
2022/10/25 08:06:42;;;;;;;19.52;6.88;;;;;;;12.63;100.00;101270.09;5058885;28;20040;-84
2022/10/25 08:09:11;;;;;;;18.08;6.75;;;;;;;12.71;100.00;101277.16;5101494;28;20048;-85
2022/10/25 08:11:53;;;;;;;18.05;7.03;;;;;;;12.81;100.00;101271.00;5048148;28;20036;-86
2022/10/25 08:14:23;;;;;;;19.87;6.63;;;;;;;12.88;100.00;101275.41;5074040;28;20036;-85
2022/10/25 08:16:51;;;;;;;26.15;6.70;;;;;;;12.91;100.00;101274.53;5065033;27;20028;-86
2022/10/25 08:19:20;;;;;;;16.02;6.43;;;;;;;12.91;100.00;101282.44;5079929;27;20035;-87
2022/10/25 08:21:48;;;;;;;17.40;6.25;;;;;;;12.94;100.00;101269.25;5074017;28;20059;-86
2022/10/25 08:24:17;;;;;;;21.13;6.60;;;;;;;13.01;100.00;101276.31;5051695;28;20520;-86
2022/10/25 08:26:45;;;;;;;16.38;6.15;;;;;;;13.04;100.00;101287.78;5051876;28;20456;-86
2022/10/25 08:29:13;;;;;;;20.63;6.40;;;;;;;13.09;100.00;101284.25;5083428;28;20047;-86
2022/10/25 08:31:42;;;;;;;24.35;6.85;;;;;;;13.15;100.00;101290.38;5094504;27;20059;-86
2022/10/25 08:34:10;;;;;;;19.38;6.22;;;;;;;13.23;100.00;101290.38;5064511;28;20051;-86
2022/10/25 08:36:43;;;;;;;15.50;5.57;;;;;;;13.32;100.00;101286.91;5078830;28;20051;-86
2022/10/25 08:39:12;;;;;;;15.10;5.18;;;;;;;13.39;100.00;101288.66;5033888;28;20036;-86
2022/10/25 08:41:54;;;;;;;13.63;5.55;;;;;;;13.47;100.00;101293.94;5053917;28;20056;-86
2022/10/25 08:44:38;;;;;;;14.20;4.25;;;;;;;13.47;100.00;101288.66;5095954;28;20448;-86
2022/10/25 08:47:25;;;;;;;13.32;4.80;;;;;;;13.53;100.00;101289.50;5075766;28;20044;-86
2022/10/25 08:50:17;;;;;;;14.10;4.82;;;;;;;13.67;100.00;101293.88;5067639;28;20052;-86
2022/10/25 08:53:06;;;;;;;14.32;4.65;;;;;;;13.74;100.00;101306.22;5102727;28;20044;-86
2022/10/25 08:55:36;;;;;;;14.93;4.95;;;;;;;13.87;100.00;101297.34;5062547;28;20036;-86
2022/10/25 08:58:28;;;;;;;16.60;4.70;;;;;;;13.99;100.00;101302.63;5068770;28;20040;-85
2022/10/25 09:01:00;;;;;;;13.20;4.10;;;;;;;14.07;100.00;101312.31;5105858;28;20040;-86
2022/10/25 09:03:28;;;;;;;15.48;5.38;;;;;;;14.11;100.00;101322.03;5079238;28;20043;-86
2022/10/25 09:05:58;;;;;;;15.25;4.50;;;;;;;14.17;100.00;101317.56;5067274;28;20020;-86
2022/10/25 09:08:45;;;;;;;17.00;4.40;;;;;;;14.15;100.00;101322.00;5066150;28;20048;-85
2022/10/25 09:11:41;;;;;;;14.48;4.43;;;;;;;14.07;100.00;101336.19;5092685;28;20059;-86
2022/10/25 09:14:31;;;;;;;13.40;3.88;;;;;;;14.00;100.00;101344.13;5055942;28;20043;-86
2022/10/25 09:17:16;;;;;;;17.75;4.90;;;;;;;13.95;100.00;101334.41;5099994;28;20043;-86
2022/10/25 09:19:52;;;;;;;12.07;4.28;;;;;;;13.92;100.00;101347.69;5065223;28;20043;-85
2022/10/25 09:22:27;;;;;;;15.68;4.45;;;;;;;13.91;100.00;101346.78;5068978;28;20441;-86
2022/10/25 09:25:10;;;;;;;12.68;4.90;;;;;;;13.88;100.00;101352.13;5082768;28;20075;-86
2022/10/25 09:27:53;;;;;;;11.70;4.22;;;;;;;13.88;100.00;101353.91;5067904;28;20032;-86
2022/10/25 09:30:23;;;;;;;18.00;4.75;;;;;;;13.88;100.00;101360.06;5060022;28;20044;-86
2022/10/25 09:32:56;;;;;;;15.20;4.93;;;;;;;13.93;100.00;101360.94;5058629;28;20035;-86
2022/10/25 09:35:47;;;;;;;15.65;4.78;;;;;;;14.00;100.00;101378.56;5057379;28;20040;-85
2022/10/25 09:38:24;;;;;;;16.83;4.60;;;;;;;14.04;100.00;101374.16;5074674;27;20043;-86
2022/10/25 09:40:55;;;;;;;;;;;;;;;14.09;100.00;101382.09;5071270;28;20039;-86
2022/10/25 09:43:44;;;;;;;16.27;5.05;;;;;;;14.08;100.00;101375.88;5078938;28;20021;-85
2022/10/25 09:46:20;;;;;;;19.63;4.82;;;;;;;14.09;100.00;101379.44;5057946;28;20044;-86
2022/10/25 09:48:57;;;;;;;12.38;4.40;;;;;;;14.11;100.00;101380.31;5082257;28;20047;-86
2022/10/25 09:51:50;;;;;;;14.75;5.15;;;;;;;14.17;100.00;101377.66;5080796;28;20059;-86
2022/10/25 09:54:43;;;;;;;19.73;3.75;;;;;;;14.28;100.00;101383.78;5065814;28;20039;-87
2022/10/25 09:57:12;;;;;;;13.07;4.85;;;;;;;14.30;100.00;101381.16;5050344;28;20046;-86
2022/10/25 09:59:42;;;;;;;17.80;5.22;;;;;;;14.33;100.00;101387.31;5052823;28;20497;-86
2022/10/25 10:02:16;;;;;;;12.35;4.38;;;;;;;14.38;100.00;101384.63;5044167;28;20035;-85
2022/10/25 10:04:44;;;;;;;14.82;3.92;;;;;;;14.40;100.00;101391.72;5070761;28;20055;-86
2022/10/25 10:07:28;;;;;;;13.85;4.03;;;;;;;14.42;100.00;101397.00;5062728;28;20036;-87
2022/10/25 10:10:01;;;;;;;12.70;4.45;;;;;;;14.45;100.00;101398.75;5083232;28;20048;-86
2022/10/25 10:12:42;;;;;;;16.58;3.90;;;;;;;14.46;100.00;101398.75;5066207;28;20264;-86
2022/10/25 10:15:15;;;;;;;16.92;5.00;;;;;;;14.50;100.00;101394.31;5087963;28;20057;-87
2022/10/25 10:17:43;;;;;;;12.32;4.15;;;;;;;14.56;100.00;101399.59;5088088;28;20031;-86
2022/10/25 10:20:17;;;;;;;16.38;4.18;;;;;;;14.62;100.00;101399.59;5062127;28;20052;-86
2022/10/25 10:22:50;;;;;;;12.98;3.53;;;;;;;14.63;100.00;101390.78;5082400;28;20038;-86
2022/10/25 10:25:23;;;;;;;15.35;3.40;;;;;;;14.64;100.00;101392.50;5066301;28;20264;-86
2022/10/25 10:27:54;;;;;;;13.55;3.47;;;;;;;14.67;100.00;101396.91;5089234;28;20046;-86
2022/10/25 10:30:28;;;;;;;14.90;3.58;;;;;;;14.66;100.00;101390.72;5057499;28;20039;-86
2022/10/25 10:33:00;;;;;;;14.32;3.35;;;;;;;14.65;100.00;101390.75;5077498;28;20044;-86
2022/10/25 10:35:28;;;;;;;14.63;3.45;;;;;;;14.65;100.00;101396.03;5078890;28;20044;-86
2022/10/25 10:38:25;;;;;;;11.05;3.75;;;;;;;14.71;100.00;101383.63;5066725;28;20052;-85
2022/10/25 10:41:13;;;;;;;12.02;3.60;;;;;;;14.78;100.00;101396.00;5097348;27;20047;-85
2022/10/25 10:43:42;;;;;;;8.63;2.90;;;;;;;14.81;100.00;101382.69;5091251;28;20052;-86
2022/10/25 10:46:14;;;;;;;17.75;2.92;;;;;;;14.87;100.00;101378.25;5072271;28;20032;-85
2022/10/25 10:48:51;;;;;;;13.57;3.17;;;;;;;14.92;100.00;101387.06;5072469;28;20720;-86
2022/10/25 10:51:33;;;;;;;10.50;2.92;;;;;;;14.98;100.00;101392.31;5069144;27;20046;-82
2022/10/25 10:54:23;;;;;;;11.70;3.20;;;;;;;15.00;100.00;101394.06;5089910;28;20043;-85
2022/10/25 10:57:12;;;;;;;13.70;3.03;;;;;;;14.98;100.00;101401.16;5106567;28;20047;-85
2022/10/25 10:59:52;;;;;;;15.23;3.40;;;;;;;15.05;100.00;101396.72;5060888;28;20031;-85
2022/10/25 11:02:40;;;;;;;11.85;2.53;;;;;;;15.15;100.00;101410.78;5083348;28;20059;-84
2022/10/25 11:05:17;;;;;;;15.27;3.00;;;;;;;15.22;100.00;101407.22;5101322;28;20036;-86
2022/10/25 11:07:56;;;;;;;8.07;2.88;;;;;;;15.28;100.00;101407.16;5074586;28;20046;-83
2022/10/25 11:10:31;;;;;;;11.98;2.47;;;;;;;15.32;100.00;101414.22;5088110;28;20039;-85
2022/10/25 11:13:09;;;;;;;8.50;2.22;;;;;;;15.33;100.00;101415.06;5087100;28;20040;-84
2022/10/25 11:15:50;;;;;;;11.65;2.40;;;;;;;15.29;100.00;101414.25;5057764;28;20043;-84
2022/10/25 11:18:31;;;;;;;10.15;1.83;;;;;;;15.22;100.00;101423.16;5086531;28;20401;-87
2022/10/25 11:21:37;;;;;;;8.98;2.08;;;;;;;15.17;100.00;101428.47;5073529;28;20044;-87
2022/10/25 11:24:32;;;;;;;12.45;2.78;;;;;;;15.14;100.00;101424.94;5081359;28;20040;-87
2022/10/25 11:27:14;;;;;;;9.32;1.80;;;;;;;15.13;100.00;101428.50;5080038;28;20409;-85
2022/10/25 11:29:52;;;;;;;8.48;2.13;;;;;;;15.10;100.00;101433.81;5090045;28;20044;-85
2022/10/25 11:32:46;;;;;;;12.38;2.50;;;;;;;14.98;100.00;101429.47;5071829;28;20032;-85